Time;durP1;ratioP1;P1;durP2;ratioP2;P2;SDS_P1;SDS_P2;PMS_P1;PMS_P2;Temp;Humidity;BMP_temperature;BMP_pressure;BME280_temperature;BME280_humidity;BME280_pressure;Samples;Min_cycle;Max_cycle;Signal;HPM_P1;HPM_P2
2023/09/05 00:00:02;;;;;;;465.30;110.25;;;;;;;;;;4925698;28;20122;-55
2023/09/05 00:02:27;;;;;;;448.98;121.28;;;;;;;;;;4928727;28;20586;-56
2023/09/05 00:04:56;;;;;;;605.27;106.47;;;;;;;;;;4927762;28;20155;-57
2023/09/05 00:07:21;;;;;;;398.60;99.78;;;;;;;;;;4927974;28;20621;-55
2023/09/05 00:09:47;;;;;;;478.20;103.38;;;;;;;;;;4925788;28;20190;-55
2023/09/05 00:12:12;;;;;;;459.15;113.00;;;;;;;;;;4912978;28;20442;-56
2023/09/05 00:14:37;;;;;;;411.05;103.35;;;;;;;;;;4927524;28;20280;-56
2023/09/05 00:17:03;;;;;;;448.03;113.70;;;;;;;;;;4927873;28;20031;-56
2023/09/05 00:19:28;;;;;;;512.30;121.55;;;;;;;;;;4928390;28;20672;-56
2023/09/05 00:21:53;;;;;;;596.03;140.40;;;;;;;;;;4925488;28;20483;-57
2023/09/05 00:24:22;;;;;;;487.35;134.30;;;;;;;;;;4927831;28;20658;-56
2023/09/05 00:26:48;;;;;;;603.45;137.63;;;;;;;;;;4926715;28;20150;-54
2023/09/05 00:29:13;;;;;;;492.77;142.93;;;;;;;;;;4929271;28;20028;-58
2023/09/05 00:31:40;;;;;;;428.83;113.40;;;;;;;;;;4927077;28;20019;-57
2023/09/05 00:34:05;;;;;;;489.58;128.43;;;;;;;;;;4926735;28;20387;-58
2023/09/05 00:36:30;;;;;;;459.05;114.80;;;;;;;;;;4913352;28;20078;-56
2023/09/05 00:38:56;;;;;;;560.13;120.33;;;;;;;;;;4926491;28;20071;-56
2023/09/05 00:41:21;;;;;;;468.00;125.03;;;;;;;;;;4927229;28;20370;-58
2023/09/05 00:43:49;;;;;;;434.67;124.13;;;;;;;;;;4925653;28;20605;-55
2023/09/05 00:46:14;;;;;;;482.02;150.65;;;;;;;;;;4926993;28;20383;-58
2023/09/05 00:48:40;;;;;;;448.05;116.35;;;;;;;;;;4924848;28;20511;-58
2023/09/05 00:51:05;;;;;;;461.35;125.47;;;;;;;;;;4924183;28;20098;-58
2023/09/05 00:53:30;;;;;;;464.95;139.05;;;;;;;;;;4926708;28;20096;-55
2023/09/05 00:55:56;;;;;;;625.85;128.50;;;;;;;;;;4925615;28;20043;-56
2023/09/05 00:58:21;;;;;;;404.27;116.03;;;;;;;;;;4927739;28;20657;-56
2023/09/05 01:00:46;;;;;;;463.83;117.40;;;;;;;;;;4924187;28;20517;-57
2023/09/05 01:03:12;;;;;;;500.50;128.40;;;;;;;;;;4927792;28;20027;-53
2023/09/05 01:05:39;;;;;;;497.40;155.88;;;;;;;;;;4924202;28;20758;-56
2023/09/05 01:08:17;;;;;;;553.00;196.18;;;;;;;;;;4926355;28;20027;-55
2023/09/05 01:10:47;;;;;;;548.50;169.45;;;;;;;;;;4925562;28;20162;-54
2023/09/05 01:13:17;;;;;;;460.80;139.65;;;;;;;;;;4926633;28;20090;-52
2023/09/05 01:15:43;;;;;;;454.40;119.55;;;;;;;;;;4924975;28;20087;-53
2023/09/05 01:18:08;;;;;;;474.10;134.38;;;;;;;;;;4925742;28;20039;-53
2023/09/05 01:20:53;;;;;;;424.23;113.65;;;;;;;;;;4925369;28;20037;-54
2023/09/05 01:23:24;;;;;;;406.25;109.90;;;;;;;;;;4914680;28;20048;-54
2023/09/05 01:25:50;;;;;;;418.77;105.28;;;;;;;;;;4926150;28;20044;-53
2023/09/05 01:28:15;;;;;;;444.35;106.00;;;;;;;;;;4924531;28;20019;-54
2023/09/05 01:30:42;;;;;;;415.00;110.47;;;;;;;;;;4925490;28;20178;-54
2023/09/05 01:33:08;;;;;;;451.67;115.25;;;;;;;;;;4925656;28;20031;-53
2023/09/05 01:35:33;;;;;;;474.92;116.15;;;;;;;;;;4925358;28;20265;-54
2023/09/05 01:37:58;;;;;;;513.60;129.18;;;;;;;;;;4926293;28;20452;-54
2023/09/05 01:40:23;;;;;;;480.63;129.45;;;;;;;;;;4926999;28;20020;-55
2023/09/05 01:42:49;;;;;;;562.97;141.15;;;;;;;;;;4926550;28;20026;-53
2023/09/05 01:45:14;;;;;;;463.00;141.70;;;;;;;;;;4926906;28;20037;-52
2023/09/05 01:47:39;;;;;;;454.55;139.18;;;;;;;;;;4927156;28;21033;-53
2023/09/05 01:50:05;;;;;;;695.72;156.57;;;;;;;;;;4922309;28;20087;-56
2023/09/05 01:52:30;;;;;;;506.52;149.68;;;;;;;;;;4926852;28;20524;-53
2023/09/05 01:54:55;;;;;;;558.67;153.50;;;;;;;;;;4925636;28;20035;-53
2023/09/05 01:57:20;;;;;;;495.50;150.27;;;;;;;;;;4924189;28;20874;-55
2023/09/05 01:59:45;;;;;;;478.70;152.10;;;;;;;;;;4925884;28;20358;-55
2023/09/05 02:02:11;;;;;;;484.00;140.60;;;;;;;;;;4923225;28;20283;-53
2023/09/05 02:04:36;;;;;;;517.40;149.03;;;;;;;;;;4926122;28;20699;-56
2023/09/05 02:07:01;;;;;;;655.90;159.83;;;;;;;;;;4924049;28;20330;-53
2023/09/05 02:09:26;;;;;;;461.10;133.52;;;;;;;;;;4925610;28;20345;-55
2023/09/05 02:11:52;;;;;;;596.17;148.77;;;;;;;;;;4922793;28;20035;-54
2023/09/05 02:14:17;;;;;;;532.83;148.68;;;;;;;;;;4927664;28;20262;-56
2023/09/05 02:16:42;;;;;;;448.43;141.83;;;;;;;;;;4924772;28;20036;-53
2023/09/05 02:19:07;;;;;;;460.93;125.27;;;;;;;;;;4926462;28;21774;-53
2023/09/05 02:21:33;;;;;;;496.88;141.50;;;;;;;;;;4924002;28;20436;-53
2023/09/05 02:23:58;;;;;;;590.47;136.63;;;;;;;;;;4923470;28;20114;-54
2023/09/05 02:26:23;;;;;;;485.70;137.98;;;;;;;;;;4925793;28;20091;-53
2023/09/05 02:28:48;;;;;;;459.60;132.07;;;;;;;;;;4925541;28;20311;-53
2023/09/05 02:31:14;;;;;;;423.93;139.30;;;;;;;;;;4923763;28;20055;-54
2023/09/05 02:33:39;;;;;;;496.23;145.07;;;;;;;;;;4924773;28;20299;-53
2023/09/05 02:36:07;;;;;;;601.80;152.95;;;;;;;;;;4924036;28;20039;-54
2023/09/05 02:38:33;;;;;;;478.98;148.55;;;;;;;;;;4925853;28;20020;-54
2023/09/05 02:40:58;;;;;;;662.93;157.43;;;;;;;;;;4922848;28;20032;-54
2023/09/05 02:43:23;;;;;;;434.38;137.27;;;;;;;;;;4926438;28;20267;-56
2023/09/05 02:45:52;;;;;;;455.07;142.70;;;;;;;;;;4926496;28;20036;-56
2023/09/05 02:48:17;;;;;;;509.63;142.43;;;;;;;;;;4924869;28;20268;-52
2023/09/05 02:50:42;;;;;;;471.15;137.13;;;;;;;;;;4928483;28;20065;-55
2023/09/05 02:53:08;;;;;;;608.15;155.05;;;;;;;;;;4926390;28;20091;-55
2023/09/05 02:55:34;;;;;;;498.37;125.23;;;;;;;;;;4925854;28;20550;-56
2023/09/05 02:58:00;;;;;;;571.88;131.23;;;;;;;;;;4928271;28;20321;-55
2023/09/05 03:00:25;;;;;;;431.65;109.55;;;;;;;;;;4924539;28;20553;-54
2023/09/05 03:02:52;;;;;;;504.05;125.72;;;;;;;;;;4924143;28;20877;-53
2023/09/05 03:05:18;;;;;;;427.38;116.07;;;;;;;;;;4924568;28;20034;-53
2023/09/05 03:07:45;;;;;;;438.90;125.88;;;;;;;;;;4925124;28;20365;-53
2023/09/05 03:10:10;;;;;;;628.20;137.35;;;;;;;;;;4922347;28;20485;-55
2023/09/05 03:12:35;;;;;;;474.85;135.90;;;;;;;;;;4924654;28;20514;-53
2023/09/05 03:15:00;;;;;;;587.53;147.23;;;;;;;;;;4924437;28;20878;-54
2023/09/05 03:17:26;;;;;;;521.38;147.60;;;;;;;;;;4923480;28;20274;-53
2023/09/05 03:19:51;;;;;;;504.63;145.13;;;;;;;;;;4927966;28;20051;-54
2023/09/05 03:22:16;;;;;;;465.25;147.57;;;;;;;;;;4927576;28;20287;-54
2023/09/05 03:24:41;;;;;;;509.63;147.57;;;;;;;;;;4928207;28;20549;-54
2023/09/05 03:27:07;;;;;;;570.37;133.63;;;;;;;;;;4928227;28;20046;-55
2023/09/05 03:29:32;;;;;;;467.33;128.50;;;;;;;;;;4929375;28;20395;-53
2023/09/05 03:31:57;;;;;;;609.38;143.32;;;;;;;;;;4928523;28;20119;-54
2023/09/05 03:34:23;;;;;;;456.77;123.20;;;;;;;;;;4928250;28;20372;-55
2023/09/05 03:36:48;;;;;;;437.40;124.88;;;;;;;;;;4928449;28;20031;-55
2023/09/05 03:39:14;;;;;;;470.17;136.88;;;;;;;;;;4927269;28;20095;-53
2023/09/05 03:41:39;;;;;;;496.70;133.95;;;;;;;;;;4929505;28;20051;-53
2023/09/05 03:44:04;;;;;;;587.80;145.13;;;;;;;;;;4929919;28;20456;-54
2023/09/05 03:46:30;;;;;;;498.08;130.43;;;;;;;;;;4929013;28;20267;-54
2023/09/05 03:48:57;;;;;;;479.10;139.30;;;;;;;;;;4926508;28;20252;-55
2023/09/05 03:51:22;;;;;;;438.20;142.45;;;;;;;;;;4928686;28;20284;-54
2023/09/05 03:53:47;;;;;;;491.13;147.90;;;;;;;;;;4929153;28;20023;-55
2023/09/05 03:56:12;;;;;;;501.58;149.40;;;;;;;;;;4926199;28;20585;-53
2023/09/05 03:58:38;;;;;;;483.20;151.18;;;;;;;;;;4928419;28;20077;-54
2023/09/05 04:01:04;;;;;;;593.17;159.93;;;;;;;;;;4926046;28;20156;-54
2023/09/05 04:03:31;;;;;;;517.42;156.18;;;;;;;;;;4927679;28;20062;-55
2023/09/05 04:05:59;;;;;;;516.20;159.35;;;;;;;;;;4928275;28;20070;-53
2023/09/05 04:08:24;;;;;;;528.78;162.35;;;;;;;;;;4927677;28;20035;-54
2023/09/05 04:10:55;;;;;;;486.03;162.57;;;;;;;;;;4927773;28;20035;-53
2023/09/05 04:13:20;;;;;;;493.35;163.13;;;;;;;;;;4928138;28;20357;-54
2023/09/05 04:15:45;;;;;;;565.53;170.07;;;;;;;;;;4928125;28;20036;-54
2023/09/05 04:18:10;;;;;;;626.03;175.03;;;;;;;;;;4928282;28;20742;-54
2023/09/05 04:20:36;;;;;;;495.27;170.37;;;;;;;;;;4927193;28;20276;-53
2023/09/05 04:23:01;;;;;;;671.17;179.37;;;;;;;;;;4927621;28;20331;-53
2023/09/05 04:25:27;;;;;;;498.98;170.55;;;;;;;;;;4926279;28;20278;-56
2023/09/05 04:27:52;;;;;;;503.42;171.77;;;;;;;;;;4926716;28;20023;-54
2023/09/05 04:30:17;;;;;;;545.53;175.00;;;;;;;;;;4923980;28;20138;-54
2023/09/05 04:32:43;;;;;;;507.77;175.38;;;;;;;;;;4927617;28;20655;-53
2023/09/05 04:35:08;;;;;;;605.45;172.82;;;;;;;;;;4929383;28;20031;-55
2023/09/05 04:37:33;;;;;;;551.08;166.35;;;;;;;;;;4925922;28;20232;-54
2023/09/05 04:40:00;;;;;;;577.70;174.23;;;;;;;;;;4924610;28;20401;-54
2023/09/05 04:42:26;;;;;;;500.48;168.88;;;;;;;;;;4927171;28;20346;-54
2023/09/05 04:44:51;;;;;;;544.40;173.55;;;;;;;;;;4928560;28;20765;-54
2023/09/05 04:47:22;;;;;;;505.10;178.60;;;;;;;;;;4927140;28;20745;-53
2023/09/05 04:49:48;;;;;;;525.85;186.05;;;;;;;;;;4926879;28;20031;-53
2023/09/05 04:52:14;;;;;;;657.47;193.52;;;;;;;;;;4924921;28;20514;-54
2023/09/05 04:54:39;;;;;;;530.45;182.93;;;;;;;;;;4927916;28;20490;-53
2023/09/05 04:57:05;;;;;;;666.97;193.33;;;;;;;;;;4925505;28;20035;-56
2023/09/05 04:59:30;;;;;;;577.78;191.73;;;;;;;;;;4926993;28;20643;-54
2023/09/05 05:01:55;;;;;;;524.87;192.57;;;;;;;;;;4927391;28;20486;-53
2023/09/05 05:04:22;;;;;;;558.33;192.67;;;;;;;;;;4925615;28;20381;-54
2023/09/05 05:06:47;;;;;;;552.75;188.88;;;;;;;;;;4927640;28;20529;-54
2023/09/05 05:09:12;;;;;;;713.05;202.40;;;;;;;;;;4925810;28;20023;-57
2023/09/05 05:11:37;;;;;;;531.60;196.20;;;;;;;;;;4927843;28;20115;-52
2023/09/05 05:14:03;;;;;;;699.73;203.67;;;;;;;;;;4926201;28;20242;-52
2023/09/05 05:16:28;;;;;;;529.90;196.20;;;;;;;;;;4926818;28;20610;-53
2023/09/05 05:18:53;;;;;;;527.43;198.33;;;;;;;;;;4927590;28;20311;-53
2023/09/05 05:21:18;;;;;;;508.20;197.60;;;;;;;;;;4925152;28;20660;-53
2023/09/05 05:23:44;;;;;;;582.50;204.57;;;;;;;;;;4926323;28;20290;-56
2023/09/05 05:26:09;;;;;;;620.88;206.35;;;;;;;;;;4924285;28;20382;-54
2023/09/05 05:28:34;;;;;;;557.50;202.77;;;;;;;;;;4927153;28;20421;-54
2023/09/05 05:30:59;;;;;;;586.08;203.90;;;;;;;;;;4926217;28;20394;-53
2023/09/05 05:33:24;;;;;;;571.37;201.37;;;;;;;;;;4926278;28;20248;-56
2023/09/05 05:35:54;;;;;;;538.90;180.63;;;;;;;;;;4927466;28;20806;-53
2023/09/05 05:38:19;;;;;;;583.80;188.35;;;;;;;;;;4924652;28;21672;-55
2023/09/05 05:40:45;;;;;;;520.53;163.95;;;;;;;;;;4925319;28;20114;-54
2023/09/05 05:43:10;;;;;;;640.13;172.48;;;;;;;;;;4923994;28;20079;-53
2023/09/05 05:45:35;;;;;;;561.50;166.93;;;;;;;;;;4932149;28;20050;-56
2023/09/05 05:48:00;;;;;;;527.67;158.80;;;;;;;;;;4923370;28;20031;-53
2023/09/05 05:50:26;;;;;;;537.37;158.73;;;;;;;;;;4925289;28;20285;-56
2023/09/05 05:52:51;;;;;;;587.07;162.47;;;;;;;;;;4925428;28;20263;-56
2023/09/05 05:55:16;;;;;;;627.30;166.23;;;;;;;;;;4923919;28;20718;-56
2023/09/05 05:57:42;;;;;;;492.90;154.45;;;;;;;;;;4926467;28;20724;-54
2023/09/05 06:00:07;;;;;;;616.08;161.43;;;;;;;;;;4922708;28;20229;-54
2023/09/05 06:02:33;;;;;;;521.67;163.02;;;;;;;;;;4925566;28;20336;-56
2023/09/05 06:05:07;;;;;;;642.47;144.02;;;;;;;;;;5037840;28;20410;-54
2023/09/05 06:07:33;;;;;;;556.97;145.52;;;;;;;;;;5024374;28;20047;-55
2023/09/05 06:09:58;;;;;;;478.75;117.15;;;;;;;;;;5024668;28;20022;-54
2023/09/05 06:12:23;;;;;;;436.87;104.70;;;;;;;;;;5004672;28;20509;-55
2023/09/05 06:14:48;;;;;;;476.40;128.63;;;;;;;;;;5010376;28;20064;-54
2023/09/05 06:17:14;;;;;;;554.28;125.57;;;;;;;;;;5006170;28;20649;-54
2023/09/05 06:19:39;;;;;;;470.17;124.28;;;;;;;;;;5007584;28;20037;-55
2023/09/05 06:22:04;;;;;;;491.20;124.60;;;;;;;;;;5008315;28;20048;-54
2023/09/05 06:24:29;;;;;;;454.00;110.17;;;;;;;;;;5004961;28;20289;-56
2023/09/05 06:26:55;;;;;;;440.02;115.55;;;;;;;;;;5004817;28;20323;-54
2023/09/05 06:29:20;;;;;;;692.07;180.80;;;;;;;;;;5004045;28;20476;-57
2023/09/05 06:31:47;;;;;;;456.02;125.30;;;;;;;;;;5006297;28;20294;-54
2023/09/05 06:34:12;;;;;;;616.35;141.40;;;;;;;;;;5008012;28;20212;-54
2023/09/05 06:36:38;;;;;;;539.03;138.23;;;;;;;;;;5007126;28;20046;-54
2023/09/05 06:39:03;;;;;;;518.80;144.10;;;;;;;;;;5002571;28;20108;-53
2023/09/05 06:41:29;;;;;;;516.33;150.52;;;;;;;;;;5009633;28;20284;-54
2023/09/05 06:43:55;;;;;;;579.28;152.48;;;;;;;;;;5010021;28;20854;-55
2023/09/05 06:46:20;;;;;;;656.90;202.17;;;;;;;;;;5008554;28;20097;-53
2023/09/05 06:48:45;;;;;;;546.83;167.50;;;;;;;;;;5009020;28;20249;-54
2023/09/05 06:51:10;;;;;;;721.70;233.23;;;;;;;;;;5003112;28;20033;-55
2023/09/05 06:53:35;;;;;;;717.90;400.13;;;;;;;;;;5009559;28;20032;-55
2023/09/05 06:56:01;;;;;;;513.53;145.33;;;;;;;;;;5008187;28;20034;-56
2023/09/05 06:58:26;;;;;;;716.53;338.02;;;;;;;;;;5003839;28;20347;-54
2023/09/05 07:00:55;;;;;;;561.00;228.98;;;;;;;;;;5008337;28;20026;-55
2023/09/05 07:03:24;;;;;;;758.33;365.30;;;;;;;;;;5002121;28;20507;-54
2023/09/05 07:05:49;;;;;;;519.85;153.50;;;;;;;;;;5009555;28;20112;-55
2023/09/05 07:08:15;;;;;;;576.55;156.05;;;;;;;;;;5012723;28;20168;-56
2023/09/05 07:10:40;;;;;;;664.58;362.95;;;;;;;;;;5010075;28;20034;-55
2023/09/05 07:13:05;;;;;;;718.70;401.27;;;;;;;;;;5009695;28;20476;-54
2023/09/05 07:15:30;;;;;;;687.08;368.95;;;;;;;;;;5000244;28;20030;-55
2023/09/05 07:17:56;;;;;;;615.27;331.00;;;;;;;;;;4997978;28;20042;-54
2023/09/05 07:20:21;;;;;;;814.70;434.48;;;;;;;;;;4996930;28;20384;-56
2023/09/05 07:22:47;;;;;;;501.77;327.98;;;;;;;;;;5000024;28;20026;-57
2023/09/05 07:25:12;;;;;;;707.63;359.03;;;;;;;;;;4996599;28;20026;-58
2023/09/05 07:27:37;;;;;;;620.03;410.30;;;;;;;;;;4997603;28;20314;-56
2023/09/05 07:30:03;;;;;;;608.23;342.37;;;;;;;;;;4994102;28;20051;-55
2023/09/05 07:32:28;;;;;;;446.88;215.98;;;;;;;;;;4995245;28;20384;-54
2023/09/05 07:34:54;;;;;;;472.20;297.87;;;;;;;;;;4995004;28;20547;-56
2023/09/05 07:37:20;;;;;;;553.92;282.10;;;;;;;;;;4994495;28;20419;-57
2023/09/05 07:39:49;;;;;;;338.73;228.50;;;;;;;;;;4997314;28;20045;-56
2023/09/05 07:42:15;;;;;;;630.13;376.25;;;;;;;;;;4998433;28;20066;-55
2023/09/05 07:44:40;;;;;;;655.60;397.97;;;;;;;;;;4998663;28;20133;-56
2023/09/05 07:47:05;;;;;;;550.20;344.27;;;;;;;;;;4996692;28;20273;-56
2023/09/05 07:49:34;;;;;;;463.57;296.67;;;;;;;;;;4993369;28;20441;-56
2023/09/05 07:51:59;;;;;;;484.52;325.75;;;;;;;;;;4999474;28;20620;-53
2023/09/05 07:54:25;;;;;;;514.95;216.98;;;;;;;;;;4993602;28;20618;-55
2023/09/05 07:56:51;;;;;;;498.25;355.13;;;;;;;;;;4995922;28;20042;-54
2023/09/05 07:59:16;;;;;;;1272.45;524.70;;;;;;;;;;4994005;28;20070;-54
2023/09/05 08:01:41;;;;;;;602.77;430.30;;;;;;;;;;4995321;28;20522;-54
2023/09/05 08:04:07;;;;;;;634.17;435.17;;;;;;;;;;4996025;28;20420;-53
2023/09/05 08:06:32;;;;;;;603.73;329.23;;;;;;;;;;4994696;28;20395;-55
2023/09/05 08:08:57;;;;;;;430.83;230.48;;;;;;;;;;4995973;28;20271;-54
2023/09/05 08:11:23;;;;;;;719.40;401.55;;;;;;;;;;4994396;28;20084;-53
2023/09/05 08:13:49;;;;;;;704.58;442.15;;;;;;;;;;4995283;28;20026;-55
2023/09/05 08:16:15;;;;;;;623.60;421.53;;;;;;;;;;4992149;28;20030;-56
2023/09/05 08:18:40;;;;;;;689.50;459.25;;;;;;;;;;4996338;28;20723;-54
2023/09/05 08:21:07;;;;;;;587.65;345.05;;;;;;;;;;4998562;28;20696;-57
2023/09/05 08:23:32;;;;;;;550.35;328.77;;;;;;;;;;4996109;28;20021;-54
2023/09/05 08:25:58;;;;;;;485.50;297.17;;;;;;;;;;4993655;28;20040;-55
2023/09/05 08:28:26;;;;;;;998.60;479.83;;;;;;;;;;4989210;28;20258;-53
2023/09/05 08:30:54;;;;;;;513.72;360.38;;;;;;;;;;4989748;28;20378;-53
2023/09/05 08:33:19;;;;;;;991.72;501.77;;;;;;;;;;4992213;28;20122;-56
2023/09/05 08:35:44;;;;;;;699.73;472.93;;;;;;;;;;4998265;28;20037;-56
2023/09/05 08:38:10;;;;;;;1147.33;594.37;;;;;;;;;;4992974;28;20448;-53
2023/09/05 08:40:35;;;;;;;904.93;463.30;;;;;;;;;;4991887;28;20049;-54
2023/09/05 08:43:03;;;;;;;589.73;389.80;;;;;;;;;;4996451;28;20032;-53
2023/09/05 08:45:29;;;;;;;631.75;296.50;;;;;;;;;;4992566;28;20285;-53
2023/09/05 08:47:55;;;;;;;548.58;362.70;;;;;;;;;;4996959;28;20019;-53
2023/09/05 08:50:20;;;;;;;771.38;394.63;;;;;;;;;;4992069;28;20025;-53
2023/09/05 08:52:46;;;;;;;643.15;371.42;;;;;;;;;;4996759;28;20193;-55
2023/09/05 08:55:12;;;;;;;542.30;316.42;;;;;;;;;;4996803;28;20112;-54
2023/09/05 08:57:40;;;;;;;804.88;445.35;;;;;;;;;;4991576;28;20454;-53
2023/09/05 09:00:06;;;;;;;708.78;377.08;;;;;;;;;;4993055;28;20567;-54
2023/09/05 09:02:32;;;;;;;644.33;234.07;;;;;;;;;;4990578;28;20037;-56
2023/09/05 09:04:57;;;;;;;556.67;295.35;;;;;;;;;;4993463;28;20032;-53
2023/09/05 09:07:29;;;;;;;602.67;291.33;;;;;;;;;;4992497;28;20168;-53
2023/09/05 09:09:57;;;;;;;532.17;344.88;;;;;;;;;;4994471;28;20013;-55
2023/09/05 09:12:32;;;;;;;658.70;360.10;;;;;;;;;;4992187;28;20031;-57
2023/09/05 09:15:13;;;;;;;671.35;436.20;;;;;;;;;;4995301;28;20034;-54
2023/09/05 09:17:48;;;;;;;757.30;363.45;;;;;;;;;;4994897;28;20735;-57
2023/09/05 09:20:14;;;;;;;515.03;272.80;;;;;;;;;;4988867;28;20381;-55
2023/09/05 09:22:39;;;;;;;628.03;407.60;;;;;;;;;;4993741;28;20733;-56
2023/09/05 09:25:14;;;;;;;503.35;334.88;;;;;;;;;;4996728;28;20091;-57
2023/09/05 09:27:42;;;;;;;572.53;377.25;;;;;;;;;;4999025;28;20068;-55
2023/09/05 09:30:08;;;;;;;427.70;176.77;;;;;;;;;;4998635;28;20032;-56
2023/09/05 09:32:34;;;;;;;452.52;233.68;;;;;;;;;;4995211;28;20034;-55
2023/09/05 09:34:59;;;;;;;523.45;279.40;;;;;;;;;;4998982;28;20041;-55
2023/09/05 09:37:25;;;;;;;676.47;389.57;;;;;;;;;;4993013;28;20069;-54
2023/09/05 09:39:56;;;;;;;760.58;477.70;;;;;;;;;;4999458;28;20045;-55
2023/09/05 09:42:24;;;;;;;668.30;314.17;;;;;;;;;;4991894;28;20506;-54
2023/09/05 09:44:50;;;;;;;604.60;409.35;;;;;;;;;;4995178;28;20018;-55
2023/09/05 09:47:17;;;;;;;676.47;198.90;;;;;;;;;;4993887;28;20041;-54
2023/09/05 09:49:45;;;;;;;554.67;319.40;;;;;;;;;;4992732;28;20285;-56
2023/09/05 09:52:12;;;;;;;535.88;353.33;;;;;;;;;;4993969;28;20025;-54
2023/09/05 09:54:38;;;;;;;509.35;297.25;;;;;;;;;;4993534;28;20479;-56
2023/09/05 09:57:07;;;;;;;590.15;318.20;;;;;;;;;;4989950;28;20034;-55
2023/09/05 09:59:35;;;;;;;754.05;431.83;;;;;;;;;;4991340;28;20342;-55
2023/09/05 10:02:09;;;;;;;638.88;443.23;;;;;;;;;;4993086;28;20428;-56
2023/09/05 10:04:35;;;;;;;582.70;333.38;;;;;;;;;;4992409;28;20355;-56
2023/09/05 10:07:01;;;;;;;498.80;310.88;;;;;;;;;;4994313;28;20541;-57
2023/09/05 10:09:30;;;;;;;663.47;366.35;;;;;;;;;;4995234;28;20045;-56
2023/09/05 10:11:57;;;;;;;558.10;317.35;;;;;;;;;;4994095;28;20074;-55
2023/09/05 10:14:22;;;;;;;1115.80;579.78;;;;;;;;;;4994395;28;20030;-56
2023/09/05 10:16:48;;;;;;;761.97;505.77;;;;;;;;;;4994297;28;20062;-53
2023/09/05 10:19:15;;;;;;;564.10;340.88;;;;;;;;;;4994594;28;20415;-55
2023/09/05 10:21:41;;;;;;;551.75;335.13;;;;;;;;;;4992828;28;20045;-56
2023/09/05 10:24:07;;;;;;;534.30;308.50;;;;;;;;;;4991612;28;20034;-55
2023/09/05 10:26:33;;;;;;;710.42;333.35;;;;;;;;;;4990301;28;20033;-57
2023/09/05 10:28:58;;;;;;;556.40;295.02;;;;;;;;;;4994259;28;20022;-54
2023/09/05 10:31:24;;;;;;;698.13;417.33;;;;;;;;;;4990842;28;20031;-56
2023/09/05 10:33:50;;;;;;;517.05;318.38;;;;;;;;;;4992466;28;20442;-54
2023/09/05 10:36:34;;;;;;;505.97;312.90;;;;;;;;;;4992919;28;20606;-53
2023/09/05 10:38:59;;;;;;;656.17;405.13;;;;;;;;;;4994110;28;20147;-56
2023/09/05 10:41:35;;;;;;;809.70;407.42;;;;;;;;;;4988214;28;20530;-57
2023/09/05 10:44:00;;;;;;;630.35;369.20;;;;;;;;;;4995456;28;20109;-58
2023/09/05 10:46:26;;;;;;;659.90;332.38;;;;;;;;;;4990649;28;20267;-56
2023/09/05 10:49:08;;;;;;;581.90;374.87;;;;;;;;;;4995229;28;20037;-55
2023/09/05 10:51:34;;;;;;;819.92;436.48;;;;;;;;;;4997889;28;20030;-58
2023/09/05 10:54:19;;;;;;;511.13;271.38;;;;;;;;;;5001609;28;20040;-55
2023/09/05 10:56:44;;;;;;;544.47;328.85;;;;;;;;;;4996052;28;20069;-56
2023/09/05 10:59:11;;;;;;;626.30;406.90;;;;;;;;;;4998265;28;20311;-54
2023/09/05 11:01:36;;;;;;;691.60;343.23;;;;;;;;;;4998533;28;20038;-55
2023/09/05 11:04:10;;;;;;;582.17;315.10;;;;;;;;;;5000056;28;20029;-56
2023/09/05 11:06:35;;;;;;;651.05;347.35;;;;;;;;;;4996490;28;20038;-53
2023/09/05 11:09:04;;;;;;;598.35;371.23;;;;;;;;;;4997990;28;20089;-56
2023/09/05 11:11:30;;;;;;;733.95;311.52;;;;;;;;;;4998217;28;20353;-55
2023/09/05 11:13:57;;;;;;;534.42;296.42;;;;;;;;;;4998251;28;20031;-56
2023/09/05 11:16:22;;;;;;;680.58;403.98;;;;;;;;;;4998202;28;20503;-54
2023/09/05 11:18:54;;;;;;;573.57;299.83;;;;;;;;;;4998357;28;20041;-55
2023/09/05 11:21:23;;;;;;;678.38;391.88;;;;;;;;;;4998045;28;20420;-53
2023/09/05 11:23:54;;;;;;;482.95;272.92;;;;;;;;;;4996125;28;20017;-57
2023/09/05 11:26:20;;;;;;;512.00;301.45;;;;;;;;;;4997263;28;20041;-53
2023/09/05 11:28:48;;;;;;;555.15;370.00;;;;;;;;;;4997402;28;20022;-54
2023/09/05 11:31:14;;;;;;;653.13;405.63;;;;;;;;;;4998277;28;20099;-54
2023/09/05 11:33:39;;;;;;;614.25;333.02;;;;;;;;;;4994627;28;20033;-54
2023/09/05 11:36:05;;;;;;;627.33;371.20;;;;;;;;;;4995816;28;20148;-56
2023/09/05 11:38:43;;;;;;;712.38;393.58;;;;;;;;;;4998415;28;20021;-56
2023/09/05 11:41:09;;;;;;;589.97;305.70;;;;;;;;;;4998464;28;20508;-53
2023/09/05 11:43:35;;;;;;;892.15;419.17;;;;;;;;;;4995126;28;20102;-53
2023/09/05 11:46:00;;;;;;;621.10;344.27;;;;;;;;;;4998461;28;20075;-53
2023/09/05 11:48:28;;;;;;;693.47;316.20;;;;;;;;;;5002340;28;20022;-55
2023/09/05 11:50:53;;;;;;;555.03;329.50;;;;;;;;;;4996576;28;20083;-57
2023/09/05 11:53:20;;;;;;;614.15;386.58;;;;;;;;;;4997793;28;20046;-54
2023/09/05 11:55:46;;;;;;;558.83;312.73;;;;;;;;;;4993791;28;20543;-54
2023/09/05 11:58:13;;;;;;;612.70;402.38;;;;;;;;;;4996122;28;20030;-54
2023/09/05 12:00:43;;;;;;;800.58;434.70;;;;;;;;;;4993299;28;20467;-55
2023/09/05 12:03:09;;;;;;;568.22;337.63;;;;;;;;;;4995532;28;20037;-54
2023/09/05 12:05:37;;;;;;;760.10;414.40;;;;;;;;;;4993605;28;20030;-54
2023/09/05 12:08:06;;;;;;;713.88;419.38;;;;;;;;;;4997162;28;20419;-56
2023/09/05 12:10:51;;;;;;;924.38;485.08;;;;;;;;;;4996033;28;20942;-54
2023/09/05 12:13:16;;;;;;;725.92;511.00;;;;;;;;;;4999985;28;20030;-57
2023/09/05 12:15:43;;;;;;;549.70;361.30;;;;;;;;;;4995098;28;22029;-55
2023/09/05 12:18:08;;;;;;;546.38;373.05;;;;;;;;;;4996678;28;20037;-55
2023/09/05 12:20:34;;;;;;;751.75;419.38;;;;;;;;;;4991036;28;20038;-56
2023/09/05 12:23:00;;;;;;;664.50;432.77;;;;;;;;;;4995394;28;20041;-57
2023/09/05 12:25:27;;;;;;;632.22;350.42;;;;;;;;;;4992100;28;20038;-54
2023/09/05 12:27:55;;;;;;;590.03;331.50;;;;;;;;;;4996528;28;20083;-56
2023/09/05 12:30:25;;;;;;;617.85;469.08;;;;;;;;;;4993756;28;20130;-55
2023/09/05 12:32:52;;;;;;;616.25;373.88;;;;;;;;;;4998286;28;20023;-55
2023/09/05 12:35:17;;;;;;;486.50;245.95;;;;;;;;;;4997447;28;20524;-55
2023/09/05 12:37:42;;;;;;;646.90;398.27;;;;;;;;;;4996852;28;22035;-55
2023/09/05 12:40:08;;;;;;;706.10;425.30;;;;;;;;;;4999971;28;20318;-55
2023/09/05 12:42:33;;;;;;;790.20;452.90;;;;;;;;;;4994250;28;20034;-55
2023/09/05 12:44:59;;;;;;;661.03;409.07;;;;;;;;;;4998051;28;20044;-56
2023/09/05 12:47:24;;;;;;;677.20;428.90;;;;;;;;;;4994021;28;20655;-57
2023/09/05 12:49:51;;;;;;;668.87;387.50;;;;;;;;;;4991680;28;20385;-54
2023/09/05 12:52:20;;;;;;;722.95;492.52;;;;;;;;;;4991954;28;20781;-55
2023/09/05 12:54:48;;;;;;;807.70;445.05;;;;;;;;;;4993489;28;20025;-53
2023/09/05 12:57:13;;;;;;;680.20;383.67;;;;;;;;;;4992308;28;20034;-55
2023/09/05 12:59:38;;;;;;;774.00;368.43;;;;;;;;;;4991071;28;20029;-55
2023/09/05 13:02:03;;;;;;;490.83;125.63;;;;;;;;;;4994051;28;20470;-56
2023/09/05 13:04:29;;;;;;;386.67;80.23;;;;;;;;;;4994294;28;20033;-54
2023/09/05 13:06:55;;;;;;;501.85;374.42;;;;;;;;;;4996363;28;20803;-54
2023/09/05 13:09:20;;;;;;;441.50;242.50;;;;;;;;;;4995451;28;20132;-55
2023/09/05 13:11:47;;;;;;;557.40;419.00;;;;;;;;;;4991218;28;20672;-53
2023/09/05 13:14:12;;;;;;;439.60;172.27;;;;;;;;;;4998430;28;20131;-55
2023/09/05 13:16:38;;;;;;;671.63;351.70;;;;;;;;;;4993674;28;20042;-55
2023/09/05 13:19:03;;;;;;;544.33;334.23;;;;;;;;;;4995355;28;20515;-53
2023/09/05 13:21:29;;;;;;;498.83;266.67;;;;;;;;;;4994922;28;20465;-54
2023/09/05 13:23:55;;;;;;;431.80;184.82;;;;;;;;;;4996539;28;20280;-56
2023/09/05 13:26:20;;;;;;;613.10;351.23;;;;;;;;;;4992552;28;20030;-55
2023/09/05 13:28:45;;;;;;;809.10;449.83;;;;;;;;;;4990565;28;20404;-56
2023/09/05 13:31:10;;;;;;;709.23;497.80;;;;;;;;;;4992727;28;20117;-57
2023/09/05 13:33:36;;;;;;;917.10;458.20;;;;;;;;;;4992669;28;20627;-55
2023/09/05 13:36:01;;;;;;;739.87;455.67;;;;;;;;;;4996049;28;20284;-54
2023/09/05 13:38:26;;;;;;;521.13;406.48;;;;;;;;;;4995766;28;21118;-54
2023/09/05 13:40:51;;;;;;;494.13;364.87;;;;;;;;;;4991738;28;20040;-54
2023/09/05 13:43:17;;;;;;;534.27;400.43;;;;;;;;;;4994223;28;20285;-54
2023/09/05 13:45:42;;;;;;;686.63;352.50;;;;;;;;;;4991150;28;20270;-53